sensor_id;sensor_type;location;lat;lon;timestamp;P1;durP1;ratioP1;P2;durP2;ratioP2
30515;SDS011;17297;54.022;10.760;2022-08-19T00:00:26;10.00;;;8.07;;
30515;SDS011;17297;54.022;10.760;2022-08-19T00:02:52;9.32;;;8.38;;
30515;SDS011;17297;54.022;10.760;2022-08-19T00:05:18;9.27;;;8.05;;
30515;SDS011;17297;54.022;10.760;2022-08-19T00:07:45;10.80;;;9.32;;
30515;SDS011;17297;54.022;10.760;2022-08-19T00:10:12;10.20;;;7.30;;
30515;SDS011;17297;54.022;10.760;2022-08-19T00:12:39;8.50;;;7.63;;
30515;SDS011;17297;54.022;10.760;2022-08-19T00:15:06;9.23;;;7.53;;
30515;SDS011;17297;54.022;10.760;2022-08-19T00:17:36;9.48;;;8.23;;
30515;SDS011;17297;54.022;10.760;2022-08-19T00:20:03;8.25;;;7.32;;
30515;SDS011;17297;54.022;10.760;2022-08-19T00:22:29;8.05;;;7.15;;
30515;SDS011;17297;54.022;10.760;2022-08-19T00:24:54;10.80;;;8.30;;
30515;SDS011;17297;54.022;10.760;2022-08-19T00:27:20;9.88;;;8.88;;
30515;SDS011;17297;54.022;10.760;2022-08-19T00:29:45;11.18;;;8.50;;
30515;SDS011;17297;54.022;10.760;2022-08-19T00:32:11;10.75;;;8.25;;
30515;SDS011;17297;54.022;10.760;2022-08-19T00:34:37;9.63;;;8.15;;
30515;SDS011;17297;54.022;10.760;2022-08-19T00:37:02;10.52;;;7.78;;
30515;SDS011;17297;54.022;10.760;2022-08-19T00:39:28;8.50;;;7.28;;
30515;SDS011;17297;54.022;10.760;2022-08-19T00:41:54;10.32;;;8.68;;
30515;SDS011;17297;54.022;10.760;2022-08-19T00:44:21;11.10;;;8.48;;
30515;SDS011;17297;54.022;10.760;2022-08-19T00:46:49;11.10;;;9.05;;
30515;SDS011;17297;54.022;10.760;2022-08-19T00:51:47;11.05;;;8.98;;
30515;SDS011;17297;54.022;10.760;2022-08-19T00:54:15;10.57;;;8.32;;
30515;SDS011;17297;54.022;10.760;2022-08-19T00:56:42;9.15;;;7.80;;
30515;SDS011;17297;54.022;10.760;2022-08-19T00:59:08;9.40;;;7.82;;
30515;SDS011;17297;54.022;10.760;2022-08-19T01:01:38;9.73;;;7.68;;
30515;SDS011;17297;54.022;10.760;2022-08-19T01:04:06;9.27;;;7.93;;
30515;SDS011;17297;54.022;10.760;2022-08-19T01:06:32;8.65;;;7.75;;
30515;SDS011;17297;54.022;10.760;2022-08-19T01:09:00;9.80;;;8.30;;
30515;SDS011;17297;54.022;10.760;2022-08-19T01:11:27;9.05;;;7.38;;
30515;SDS011;17297;54.022;10.760;2022-08-19T01:13:55;9.35;;;8.15;;
30515;SDS011;17297;54.022;10.760;2022-08-19T01:16:21;9.32;;;7.57;;
30515;SDS011;17297;54.022;10.760;2022-08-19T01:18:50;8.38;;;7.57;;
30515;SDS011;17297;54.022;10.760;2022-08-19T01:21:18;11.73;;;8.15;;
30515;SDS011;17297;54.022;10.760;2022-08-19T01:23:51;8.38;;;6.75;;
30515;SDS011;17297;54.022;10.760;2022-08-19T01:26:18;9.38;;;6.90;;
30515;SDS011;17297;54.022;10.760;2022-08-19T01:28:47;9.45;;;7.30;;
30515;SDS011;17297;54.022;10.760;2022-08-19T01:31:16;10.18;;;7.53;;
30515;SDS011;17297;54.022;10.760;2022-08-19T01:33:44;10.48;;;7.35;;
30515;SDS011;17297;54.022;10.760;2022-08-19T01:36:16;8.32;;;7.43;;
30515;SDS011;17297;54.022;10.760;2022-08-19T01:38:50;8.43;;;6.60;;
30515;SDS011;17297;54.022;10.760;2022-08-19T01:41:16;9.85;;;7.45;;
30515;SDS011;17297;54.022;10.760;2022-08-19T01:43:43;10.23;;;6.82;;
30515;SDS011;17297;54.022;10.760;2022-08-19T01:46:09;8.13;;;6.57;;
30515;SDS011;17297;54.022;10.760;2022-08-19T01:48:36;9.68;;;7.45;;
30515;SDS011;17297;54.022;10.760;2022-08-19T01:51:05;8.20;;;6.75;;
30515;SDS011;17297;54.022;10.760;2022-08-19T01:53:31;9.88;;;8.82;;
30515;SDS011;17297;54.022;10.760;2022-08-19T01:55:57;9.13;;;6.40;;
30515;SDS011;17297;54.022;10.760;2022-08-19T01:58:24;9.60;;;7.15;;
30515;SDS011;17297;54.022;10.760;2022-08-19T02:00:56;8.65;;;7.07;;
30515;SDS011;17297;54.022;10.760;2022-08-19T02:03:22;7.40;;;6.45;;
30515;SDS011;17297;54.022;10.760;2022-08-19T02:05:48;10.20;;;7.15;;
30515;SDS011;17297;54.022;10.760;2022-08-19T02:08:18;8.00;;;5.93;;
30515;SDS011;17297;54.022;10.760;2022-08-19T02:10:44;8.18;;;6.00;;
30515;SDS011;17297;54.022;10.760;2022-08-19T02:13:10;6.97;;;6.28;;
30515;SDS011;17297;54.022;10.760;2022-08-19T02:15:38;7.00;;;6.30;;
30515;SDS011;17297;54.022;10.760;2022-08-19T02:18:04;8.25;;;6.63;;
30515;SDS011;17297;54.022;10.760;2022-08-19T02:20:30;8.43;;;6.68;;
30515;SDS011;17297;54.022;10.760;2022-08-19T02:22:55;10.05;;;6.93;;
30515;SDS011;17297;54.022;10.760;2022-08-19T02:25:21;7.72;;;6.22;;
30515;SDS011;17297;54.022;10.760;2022-08-19T02:27:46;8.23;;;6.60;;
30515;SDS011;17297;54.022;10.760;2022-08-19T02:30:13;8.85;;;6.78;;
30515;SDS011;17297;54.022;10.760;2022-08-19T02:32:41;7.47;;;6.50;;
30515;SDS011;17297;54.022;10.760;2022-08-19T02:35:07;8.73;;;6.97;;
30515;SDS011;17297;54.022;10.760;2022-08-19T02:37:33;10.88;;;7.43;;
30515;SDS011;17297;54.022;10.760;2022-08-19T02:40:17;8.27;;;6.80;;
30515;SDS011;17297;54.022;10.760;2022-08-19T02:42:43;7.10;;;6.30;;
30515;SDS011;17297;54.022;10.760;2022-08-19T02:45:10;10.23;;;7.25;;
30515;SDS011;17297;54.022;10.760;2022-08-19T02:47:39;8.43;;;6.43;;
30515;SDS011;17297;54.022;10.760;2022-08-19T02:50:05;6.68;;;5.70;;
30515;SDS011;17297;54.022;10.760;2022-08-19T02:52:32;8.88;;;6.35;;
30515;SDS011;17297;54.022;10.760;2022-08-19T02:54:58;7.38;;;5.60;;
30515;SDS011;17297;54.022;10.760;2022-08-19T02:57:25;8.90;;;7.40;;
30515;SDS011;17297;54.022;10.760;2022-08-19T02:59:51;9.38;;;7.65;;
30515;SDS011;17297;54.022;10.760;2022-08-19T03:02:16;9.48;;;7.05;;
30515;SDS011;17297;54.022;10.760;2022-08-19T03:04:42;7.00;;;5.97;;
30515;SDS011;17297;54.022;10.760;2022-08-19T03:07:08;9.55;;;6.53;;
30515;SDS011;17297;54.022;10.760;2022-08-19T03:09:35;8.10;;;7.30;;
30515;SDS011;17297;54.022;10.760;2022-08-19T03:12:02;9.30;;;6.85;;
30515;SDS011;17297;54.022;10.760;2022-08-19T03:14:30;8.32;;;6.45;;
30515;SDS011;17297;54.022;10.760;2022-08-19T03:16:57;8.23;;;7.13;;
30515;SDS011;17297;54.022;10.760;2022-08-19T03:19:22;8.35;;;7.13;;
30515;SDS011;17297;54.022;10.760;2022-08-19T03:21:48;10.00;;;8.23;;
30515;SDS011;17297;54.022;10.760;2022-08-19T03:24:15;9.98;;;7.70;;
30515;SDS011;17297;54.022;10.760;2022-08-19T03:26:43;10.45;;;7.82;;
30515;SDS011;17297;54.022;10.760;2022-08-19T03:29:12;8.75;;;7.78;;
30515;SDS011;17297;54.022;10.760;2022-08-19T03:31:38;10.95;;;7.13;;
30515;SDS011;17297;54.022;10.760;2022-08-19T03:34:06;10.23;;;7.80;;
30515;SDS011;17297;54.022;10.760;2022-08-19T03:36:32;7.25;;;5.97;;
30515;SDS011;17297;54.022;10.760;2022-08-19T03:38:58;9.30;;;8.27;;
30515;SDS011;17297;54.022;10.760;2022-08-19T03:41:32;11.80;;;8.48;;
30515;SDS011;17297;54.022;10.760;2022-08-19T03:44:02;9.68;;;8.43;;
30515;SDS011;17297;54.022;10.760;2022-08-19T03:46:30;9.23;;;8.30;;
30515;SDS011;17297;54.022;10.760;2022-08-19T03:48:58;9.75;;;8.02;;
30515;SDS011;17297;54.022;10.760;2022-08-19T03:51:27;9.07;;;7.63;;
30515;SDS011;17297;54.022;10.760;2022-08-19T03:53:56;10.00;;;7.95;;
30515;SDS011;17297;54.022;10.760;2022-08-19T03:56:23;9.73;;;7.15;;
30515;SDS011;17297;54.022;10.760;2022-08-19T03:58:56;9.93;;;7.55;;
30515;SDS011;17297;54.022;10.760;2022-08-19T04:01:24;10.43;;;8.13;;
30515;SDS011;17297;54.022;10.760;2022-08-19T04:03:55;12.90;;;9.27;;
30515;SDS011;17297;54.022;10.760;2022-08-19T04:06:26;12.23;;;8.73;;
30515;SDS011;17297;54.022;10.760;2022-08-19T04:08:55;10.05;;;7.57;;
30515;SDS011;17297;54.022;10.760;2022-08-19T04:11:27;13.88;;;8.75;;
30515;SDS011;17297;54.022;10.760;2022-08-19T04:13:55;12.75;;;8.52;;
30515;SDS011;17297;54.022;10.760;2022-08-19T04:16:21;12.38;;;8.02;;
30515;SDS011;17297;54.022;10.760;2022-08-19T04:18:48;10.13;;;8.57;;
30515;SDS011;17297;54.022;10.760;2022-08-19T04:21:18;10.30;;;8.43;;
30515;SDS011;17297;54.022;10.760;2022-08-19T04:23:46;11.05;;;7.55;;
30515;SDS011;17297;54.022;10.760;2022-08-19T04:26:16;10.30;;;8.48;;
30515;SDS011;17297;54.022;10.760;2022-08-19T04:28:44;7.97;;;7.18;;
30515;SDS011;17297;54.022;10.760;2022-08-19T04:31:24;9.38;;;7.35;;
30515;SDS011;17297;54.022;10.760;2022-08-19T04:33:52;12.93;;;9.15;;
30515;SDS011;17297;54.022;10.760;2022-08-19T04:36:20;8.02;;;7.00;;
30515;SDS011;17297;54.022;10.760;2022-08-19T04:38:48;9.43;;;6.60;;
30515;SDS011;17297;54.022;10.760;2022-08-19T04:41:17;9.07;;;7.40;;
30515;SDS011;17297;54.022;10.760;2022-08-19T04:44:01;9.80;;;6.97;;
30515;SDS011;17297;54.022;10.760;2022-08-19T04:46:27;10.40;;;8.63;;
30515;SDS011;17297;54.022;10.760;2022-08-19T04:48:55;6.93;;;5.97;;
30515;SDS011;17297;54.022;10.760;2022-08-19T04:51:25;10.05;;;7.38;;
30515;SDS011;17297;54.022;10.760;2022-08-19T04:53:51;9.13;;;7.63;;
30515;SDS011;17297;54.022;10.760;2022-08-19T04:56:17;10.20;;;8.43;;
30515;SDS011;17297;54.022;10.760;2022-08-19T04:58:45;13.00;;;8.93;;
30515;SDS011;17297;54.022;10.760;2022-08-19T05:01:12;15.38;;;9.85;;
30515;SDS011;17297;54.022;10.760;2022-08-19T05:03:39;14.40;;;9.20;;
30515;SDS011;17297;54.022;10.760;2022-08-19T05:06:10;12.93;;;9.38;;
30515;SDS011;17297;54.022;10.760;2022-08-19T05:08:37;12.98;;;9.85;;
30515;SDS011;17297;54.022;10.760;2022-08-19T05:11:09;14.10;;;9.18;;
30515;SDS011;17297;54.022;10.760;2022-08-19T05:13:36;12.35;;;8.57;;
30515;SDS011;17297;54.022;10.760;2022-08-19T05:16:03;14.20;;;9.52;;
30515;SDS011;17297;54.022;10.760;2022-08-19T05:18:29;15.70;;;9.75;;
30515;SDS011;17297;54.022;10.760;2022-08-19T05:21:15;14.68;;;9.10;;
30515;SDS011;17297;54.022;10.760;2022-08-19T05:24:00;12.93;;;9.45;;
30515;SDS011;17297;54.022;10.760;2022-08-19T05:26:27;12.68;;;8.77;;
30515;SDS011;17297;54.022;10.760;2022-08-19T05:28:52;13.82;;;9.98;;
30515;SDS011;17297;54.022;10.760;2022-08-19T05:31:19;13.70;;;8.75;;
30515;SDS011;17297;54.022;10.760;2022-08-19T05:33:45;11.23;;;9.15;;
30515;SDS011;17297;54.022;10.760;2022-08-19T05:36:11;13.95;;;10.32;;
30515;SDS011;17297;54.022;10.760;2022-08-19T05:38:37;14.52;;;8.80;;
30515;SDS011;17297;54.022;10.760;2022-08-19T05:41:08;18.77;;;11.13;;
30515;SDS011;17297;54.022;10.760;2022-08-19T05:43:35;15.07;;;9.88;;
30515;SDS011;17297;54.022;10.760;2022-08-19T05:46:02;13.45;;;8.68;;
30515;SDS011;17297;54.022;10.760;2022-08-19T05:48:33;11.13;;;8.55;;
30515;SDS011;17297;54.022;10.760;2022-08-19T05:51:03;13.45;;;9.07;;
30515;SDS011;17297;54.022;10.760;2022-08-19T05:53:31;11.88;;;8.80;;
30515;SDS011;17297;54.022;10.760;2022-08-19T05:56:05;11.88;;;9.70;;
30515;SDS011;17297;54.022;10.760;2022-08-19T05:58:32;15.50;;;8.20;;
30515;SDS011;17297;54.022;10.760;2022-08-19T06:00:58;11.60;;;8.15;;
30515;SDS011;17297;54.022;10.760;2022-08-19T06:03:29;9.98;;;7.82;;
30515;SDS011;17297;54.022;10.760;2022-08-19T06:05:56;11.93;;;9.18;;
30515;SDS011;17297;54.022;10.760;2022-08-19T06:08:24;13.20;;;8.75;;
30515;SDS011;17297;54.022;10.760;2022-08-19T06:10:49;14.50;;;9.20;;
30515;SDS011;17297;54.022;10.760;2022-08-19T06:13:15;11.98;;;8.70;;
30515;SDS011;17297;54.022;10.760;2022-08-19T06:15:40;12.80;;;9.57;;
30515;SDS011;17297;54.022;10.760;2022-08-19T06:18:09;13.25;;;9.40;;
30515;SDS011;17297;54.022;10.760;2022-08-19T06:20:34;13.23;;;11.05;;
30515;SDS011;17297;54.022;10.760;2022-08-19T06:23:00;13.65;;;9.02;;
30515;SDS011;17297;54.022;10.760;2022-08-19T06:25:25;14.18;;;9.93;;
30515;SDS011;17297;54.022;10.760;2022-08-19T06:27:51;15.40;;;11.07;;
30515;SDS011;17297;54.022;10.760;2022-08-19T06:30:16;14.68;;;10.15;;
30515;SDS011;17297;54.022;10.760;2022-08-19T06:32:42;16.98;;;10.57;;
30515;SDS011;17297;54.022;10.760;2022-08-19T06:35:08;13.10;;;10.57;;
30515;SDS011;17297;54.022;10.760;2022-08-19T06:37:33;14.32;;;9.85;;
30515;SDS011;17297;54.022;10.760;2022-08-19T06:39:59;12.60;;;9.32;;
30515;SDS011;17297;54.022;10.760;2022-08-19T06:42:24;16.88;;;11.63;;
30515;SDS011;17297;54.022;10.760;2022-08-19T06:44:52;14.85;;;9.85;;
30515;SDS011;17297;54.022;10.760;2022-08-19T06:47:19;13.38;;;9.18;;
30515;SDS011;17297;54.022;10.760;2022-08-19T06:49:46;11.60;;;7.88;;
30515;SDS011;17297;54.022;10.760;2022-08-19T06:52:12;17.15;;;10.90;;
30515;SDS011;17297;54.022;10.760;2022-08-19T06:54:38;14.68;;;10.02;;
30515;SDS011;17297;54.022;10.760;2022-08-19T06:57:04;14.93;;;10.15;;
30515;SDS011;17297;54.022;10.760;2022-08-19T06:59:31;17.25;;;9.75;;
30515;SDS011;17297;54.022;10.760;2022-08-19T07:02:02;13.52;;;9.50;;
30515;SDS011;17297;54.022;10.760;2022-08-19T07:04:31;14.65;;;10.23;;
30515;SDS011;17297;54.022;10.760;2022-08-19T07:06:58;14.13;;;9.68;;
30515;SDS011;17297;54.022;10.760;2022-08-19T07:09:25;14.32;;;10.68;;
30515;SDS011;17297;54.022;10.760;2022-08-19T07:11:52;19.23;;;12.43;;
30515;SDS011;17297;54.022;10.760;2022-08-19T07:14:19;15.40;;;10.07;;
30515;SDS011;17297;54.022;10.760;2022-08-19T07:16:48;17.10;;;11.32;;
30515;SDS011;17297;54.022;10.760;2022-08-19T07:19:16;18.60;;;11.98;;
30515;SDS011;17297;54.022;10.760;2022-08-19T07:21:42;15.55;;;12.05;;
30515;SDS011;17297;54.022;10.760;2022-08-19T07:24:08;19.08;;;12.13;;
30515;SDS011;17297;54.022;10.760;2022-08-19T07:26:37;15.70;;;9.80;;
30515;SDS011;17297;54.022;10.760;2022-08-19T07:29:05;17.08;;;10.32;;
30515;SDS011;17297;54.022;10.760;2022-08-19T07:31:31;18.42;;;11.02;;
30515;SDS011;17297;54.022;10.760;2022-08-19T07:34:02;15.32;;;10.02;;
30515;SDS011;17297;54.022;10.760;2022-08-19T07:36:32;19.98;;;12.88;;
30515;SDS011;17297;54.022;10.760;2022-08-19T07:38:59;18.00;;;12.80;;
30515;SDS011;17297;54.022;10.760;2022-08-19T07:41:30;18.45;;;10.65;;
30515;SDS011;17297;54.022;10.760;2022-08-19T07:43:56;18.55;;;12.77;;
30515;SDS011;17297;54.022;10.760;2022-08-19T07:46:23;26.83;;;13.32;;
30515;SDS011;17297;54.022;10.760;2022-08-19T07:48:49;20.75;;;12.32;;
30515;SDS011;17297;54.022;10.760;2022-08-19T07:51:17;23.25;;;12.55;;
30515;SDS011;17297;54.022;10.760;2022-08-19T07:53:45;19.55;;;12.15;;
30515;SDS011;17297;54.022;10.760;2022-08-19T07:56:12;20.80;;;12.25;;
30515;SDS011;17297;54.022;10.760;2022-08-19T07:58:39;20.83;;;12.93;;
30515;SDS011;17297;54.022;10.760;2022-08-19T08:01:07;19.85;;;11.23;;
30515;SDS011;17297;54.022;10.760;2022-08-19T08:03:36;23.10;;;13.48;;
30515;SDS011;17297;54.022;10.760;2022-08-19T08:06:21;20.02;;;11.95;;
30515;SDS011;17297;54.022;10.760;2022-08-19T08:09:05;20.08;;;10.65;;
30515;SDS011;17297;54.022;10.760;2022-08-19T08:11:45;23.30;;;13.25;;
30515;SDS011;17297;54.022;10.760;2022-08-19T08:14:21;19.42;;;11.90;;
30515;SDS011;17297;54.022;10.760;2022-08-19T08:16:52;23.05;;;11.88;;
30515;SDS011;17297;54.022;10.760;2022-08-19T08:19:19;17.75;;;11.60;;
30515;SDS011;17297;54.022;10.760;2022-08-19T08:21:47;19.58;;;11.43;;
30515;SDS011;17297;54.022;10.760;2022-08-19T08:24:14;19.50;;;11.85;;
30515;SDS011;17297;54.022;10.760;2022-08-19T08:26:40;21.75;;;12.32;;
30515;SDS011;17297;54.022;10.760;2022-08-19T08:29:06;24.60;;;13.93;;
30515;SDS011;17297;54.022;10.760;2022-08-19T08:31:34;18.80;;;11.75;;
30515;SDS011;17297;54.022;10.760;2022-08-19T08:33:59;23.05;;;13.73;;
30515;SDS011;17297;54.022;10.760;2022-08-19T08:36:25;24.95;;;13.68;;
30515;SDS011;17297;54.022;10.760;2022-08-19T08:38:51;20.73;;;13.85;;
30515;SDS011;17297;54.022;10.760;2022-08-19T08:41:28;19.83;;;12.63;;
30515;SDS011;17297;54.022;10.760;2022-08-19T08:44:00;19.45;;;12.88;;
30515;SDS011;17297;54.022;10.760;2022-08-19T08:46:37;20.70;;;11.57;;
30515;SDS011;17297;54.022;10.760;2022-08-19T08:52:00;25.50;;;12.05;;
30515;SDS011;17297;54.022;10.760;2022-08-19T08:54:35;13.95;;;9.63;;
30515;SDS011;17297;54.022;10.760;2022-08-19T08:57:07;18.23;;;10.38;;
30515;SDS011;17297;54.022;10.760;2022-08-19T08:59:39;19.17;;;10.90;;
30515;SDS011;17297;54.022;10.760;2022-08-19T09:02:06;16.27;;;11.15;;
30515;SDS011;17297;54.022;10.760;2022-08-19T09:04:34;18.95;;;11.75;;
30515;SDS011;17297;54.022;10.760;2022-08-19T09:09:34;21.08;;;11.68;;
30515;SDS011;17297;54.022;10.760;2022-08-19T09:12:10;20.38;;;12.40;;
30515;SDS011;17297;54.022;10.760;2022-08-19T09:14:49;16.55;;;11.35;;
30515;SDS011;17297;54.022;10.760;2022-08-19T09:17:28;18.83;;;10.88;;
30515;SDS011;17297;54.022;10.760;2022-08-19T09:22:44;20.20;;;12.02;;
30515;SDS011;17297;54.022;10.760;2022-08-19T09:25:11;14.13;;;10.10;;
30515;SDS011;17297;54.022;10.760;2022-08-19T09:27:40;16.60;;;10.90;;
30515;SDS011;17297;54.022;10.760;2022-08-19T09:30:07;17.58;;;9.57;;
30515;SDS011;17297;54.022;10.760;2022-08-19T09:32:34;15.35;;;10.15;;
30515;SDS011;17297;54.022;10.760;2022-08-19T09:34:59;15.43;;;10.60;;
30515;SDS011;17297;54.022;10.760;2022-08-19T09:37:25;12.85;;;9.38;;
30515;SDS011;17297;54.022;10.760;2022-08-19T09:39:51;16.52;;;10.68;;
30515;SDS011;17297;54.022;10.760;2022-08-19T09:42:19;17.75;;;10.30;;
30515;SDS011;17297;54.022;10.760;2022-08-19T09:44:45;15.68;;;9.60;;
30515;SDS011;17297;54.022;10.760;2022-08-19T09:47:12;19.10;;;10.73;;
30515;SDS011;17297;54.022;10.760;2022-08-19T09:49:39;15.40;;;11.43;;
30515;SDS011;17297;54.022;10.760;2022-08-19T09:52:06;15.73;;;10.57;;
30515;SDS011;17297;54.022;10.760;2022-08-19T09:54:33;14.88;;;9.68;;
30515;SDS011;17297;54.022;10.760;2022-08-19T09:56:59;12.90;;;8.88;;
30515;SDS011;17297;54.022;10.760;2022-08-19T09:59:25;13.93;;;9.95;;
30515;SDS011;17297;54.022;10.760;2022-08-19T10:01:51;12.13;;;9.45;;
30515;SDS011;17297;54.022;10.760;2022-08-19T10:04:16;16.33;;;9.95;;
30515;SDS011;17297;54.022;10.760;2022-08-19T10:06:42;13.38;;;10.30;;
30515;SDS011;17297;54.022;10.760;2022-08-19T10:09:08;24.05;;;10.45;;
30515;SDS011;17297;54.022;10.760;2022-08-19T10:11:36;13.55;;;9.57;;
30515;SDS011;17297;54.022;10.760;2022-08-19T10:14:05;13.45;;;10.05;;
30515;SDS011;17297;54.022;10.760;2022-08-19T10:16:33;16.48;;;10.93;;
30515;SDS011;17297;54.022;10.760;2022-08-19T10:19:01;14.02;;;9.93;;
30515;SDS011;17297;54.022;10.760;2022-08-19T10:21:29;14.25;;;10.77;;
30515;SDS011;17297;54.022;10.760;2022-08-19T10:24:03;12.40;;;9.90;;
30515;SDS011;17297;54.022;10.760;2022-08-19T10:26:31;12.85;;;9.95;;
30515;SDS011;17297;54.022;10.760;2022-08-19T10:29:02;14.52;;;9.88;;
30515;SDS011;17297;54.022;10.760;2022-08-19T10:31:31;12.32;;;10.48;;
30515;SDS011;17297;54.022;10.760;2022-08-19T10:33:58;13.82;;;10.07;;
30515;SDS011;17297;54.022;10.760;2022-08-19T10:36:25;11.65;;;9.63;;
30515;SDS011;17297;54.022;10.760;2022-08-19T10:38:57;12.40;;;9.15;;
30515;SDS011;17297;54.022;10.760;2022-08-19T10:41:25;13.65;;;10.13;;
30515;SDS011;17297;54.022;10.760;2022-08-19T10:43:53;13.63;;;10.30;;
30515;SDS011;17297;54.022;10.760;2022-08-19T10:46:20;14.15;;;9.85;;
30515;SDS011;17297;54.022;10.760;2022-08-19T10:48:48;15.52;;;9.80;;
30515;SDS011;17297;54.022;10.760;2022-08-19T10:51:15;12.18;;;9.20;;
30515;SDS011;17297;54.022;10.760;2022-08-19T10:53:59;15.48;;;10.25;;
30515;SDS011;17297;54.022;10.760;2022-08-19T10:56:26;11.60;;;10.40;;
30515;SDS011;17297;54.022;10.760;2022-08-19T10:59:12;11.80;;;9.05;;
30515;SDS011;17297;54.022;10.760;2022-08-19T11:01:39;14.95;;;10.10;;
30515;SDS011;17297;54.022;10.760;2022-08-19T11:04:05;12.60;;;9.25;;
30515;SDS011;17297;54.022;10.760;2022-08-19T11:06:35;14.32;;;10.20;;
30515;SDS011;17297;54.022;10.760;2022-08-19T11:09:01;13.20;;;9.98;;
30515;SDS011;17297;54.022;10.760;2022-08-19T11:11:28;14.00;;;10.13;;
30515;SDS011;17297;54.022;10.760;2022-08-19T11:13:54;13.25;;;9.80;;
30515;SDS011;17297;54.022;10.760;2022-08-19T11:16:20;16.40;;;9.85;;
30515;SDS011;17297;54.022;10.760;2022-08-19T11:18:48;13.45;;;10.23;;
30515;SDS011;17297;54.022;10.760;2022-08-19T11:21:17;11.93;;;9.63;;
30515;SDS011;17297;54.022;10.760;2022-08-19T11:23:46;11.77;;;9.13;;
30515;SDS011;17297;54.022;10.760;2022-08-19T11:26:13;14.38;;;9.93;;
30515;SDS011;17297;54.022;10.760;2022-08-19T11:28:40;13.27;;;9.40;;
30515;SDS011;17297;54.022;10.760;2022-08-19T11:31:10;12.52;;;8.05;;
30515;SDS011;17297;54.022;10.760;2022-08-19T11:33:37;11.88;;;9.52;;
30515;SDS011;17297;54.022;10.760;2022-08-19T11:36:02;11.55;;;8.85;;
30515;SDS011;17297;54.022;10.760;2022-08-19T11:38:28;11.00;;;7.95;;
30515;SDS011;17297;54.022;10.760;2022-08-19T11:40:58;12.73;;;9.68;;
30515;SDS011;17297;54.022;10.760;2022-08-19T11:43:25;12.57;;;7.25;;
30515;SDS011;17297;54.022;10.760;2022-08-19T11:45:52;13.32;;;9.43;;
30515;SDS011;17297;54.022;10.760;2022-08-19T11:48:19;8.88;;;7.00;;
30515;SDS011;17297;54.022;10.760;2022-08-19T11:50:50;10.77;;;7.97;;
30515;SDS011;17297;54.022;10.760;2022-08-19T11:53:17;10.00;;;8.20;;
30515;SDS011;17297;54.022;10.760;2022-08-19T11:55:45;9.30;;;7.82;;
30515;SDS011;17297;54.022;10.760;2022-08-19T11:58:13;10.00;;;7.93;;
30515;SDS011;17297;54.022;10.760;2022-08-19T12:00:40;8.82;;;7.63;;
30515;SDS011;17297;54.022;10.760;2022-08-19T12:03:06;8.82;;;6.25;;
30515;SDS011;17297;54.022;10.760;2022-08-19T12:05:32;8.20;;;7.00;;
30515;SDS011;17297;54.022;10.760;2022-08-19T12:07:58;8.35;;;6.82;;
30515;SDS011;17297;54.022;10.760;2022-08-19T12:10:23;7.90;;;6.20;;
30515;SDS011;17297;54.022;10.760;2022-08-19T12:12:49;5.75;;;5.13;;
30515;SDS011;17297;54.022;10.760;2022-08-19T12:15:15;7.22;;;6.28;;
30515;SDS011;17297;54.022;10.760;2022-08-19T12:17:43;8.88;;;6.57;;
30515;SDS011;17297;54.022;10.760;2022-08-19T12:20:09;5.00;;;4.50;;
30515;SDS011;17297;54.022;10.760;2022-08-19T12:22:37;6.32;;;5.75;;
30515;SDS011;17297;54.022;10.760;2022-08-19T12:25:03;6.22;;;5.60;;
30515;SDS011;17297;54.022;10.760;2022-08-19T12:27:30;8.77;;;6.88;;
30515;SDS011;17297;54.022;10.760;2022-08-19T12:29:56;6.35;;;4.95;;
30515;SDS011;17297;54.022;10.760;2022-08-19T12:32:22;6.18;;;5.38;;
30515;SDS011;17297;54.022;10.760;2022-08-19T12:34:52;6.40;;;4.72;;
30515;SDS011;17297;54.022;10.760;2022-08-19T12:37:20;6.00;;;5.13;;
30515;SDS011;17297;54.022;10.760;2022-08-19T12:39:47;5.85;;;4.57;;
30515;SDS011;17297;54.022;10.760;2022-08-19T12:42:16;5.72;;;4.70;;
30515;SDS011;17297;54.022;10.760;2022-08-19T12:44:43;6.32;;;4.82;;
30515;SDS011;17297;54.022;10.760;2022-08-19T12:47:10;5.03;;;4.20;;
30515;SDS011;17297;54.022;10.760;2022-08-19T12:49:37;5.45;;;4.57;;
30515;SDS011;17297;54.022;10.760;2022-08-19T12:52:04;6.15;;;4.95;;
30515;SDS011;17297;54.022;10.760;2022-08-19T12:54:30;5.10;;;4.60;;
30515;SDS011;17297;54.022;10.760;2022-08-19T12:56:58;6.65;;;4.63;;
30515;SDS011;17297;54.022;10.760;2022-08-19T12:59:24;6.07;;;4.65;;
30515;SDS011;17297;54.022;10.760;2022-08-19T13:01:50;4.78;;;4.28;;
30515;SDS011;17297;54.022;10.760;2022-08-19T13:04:16;5.45;;;4.95;;
30515;SDS011;17297;54.022;10.760;2022-08-19T13:06:41;4.90;;;4.40;;
30515;SDS011;17297;54.022;10.760;2022-08-19T13:09:07;7.35;;;5.13;;
30515;SDS011;17297;54.022;10.760;2022-08-19T13:11:32;6.63;;;5.22;;
30515;SDS011;17297;54.022;10.760;2022-08-19T13:13:59;5.35;;;4.70;;
30515;SDS011;17297;54.022;10.760;2022-08-19T13:16:25;5.68;;;5.07;;
30515;SDS011;17297;54.022;10.760;2022-08-19T13:18:52;6.30;;;5.38;;
30515;SDS011;17297;54.022;10.760;2022-08-19T13:21:20;7.30;;;5.82;;
30515;SDS011;17297;54.022;10.760;2022-08-19T13:23:48;5.28;;;4.72;;
30515;SDS011;17297;54.022;10.760;2022-08-19T13:26:14;6.47;;;5.63;;
30515;SDS011;17297;54.022;10.760;2022-08-19T13:28:40;7.15;;;5.82;;
30515;SDS011;17297;54.022;10.760;2022-08-19T13:31:26;6.93;;;5.15;;
30515;SDS011;17297;54.022;10.760;2022-08-19T13:34:13;7.90;;;6.50;;
30515;SDS011;17297;54.022;10.760;2022-08-19T13:36:39;7.50;;;6.72;;
30515;SDS011;17297;54.022;10.760;2022-08-19T13:39:05;7.93;;;6.72;;
30515;SDS011;17297;54.022;10.760;2022-08-19T13:41:32;7.90;;;7.18;;
30515;SDS011;17297;54.022;10.760;2022-08-19T13:43:58;9.48;;;8.50;;
30515;SDS011;17297;54.022;10.760;2022-08-19T13:46:24;13.27;;;7.65;;
30515;SDS011;17297;54.022;10.760;2022-08-19T13:48:49;9.02;;;6.78;;
30515;SDS011;17297;54.022;10.760;2022-08-19T13:51:15;9.95;;;8.18;;
30515;SDS011;17297;54.022;10.760;2022-08-19T13:53:42;10.55;;;7.97;;
30515;SDS011;17297;54.022;10.760;2022-08-19T13:56:09;12.48;;;7.88;;
30515;SDS011;17297;54.022;10.760;2022-08-19T13:58:37;12.20;;;8.95;;
30515;SDS011;17297;54.022;10.760;2022-08-19T14:01:04;9.60;;;7.63;;
30515;SDS011;17297;54.022;10.760;2022-08-19T14:03:31;11.18;;;8.57;;
30515;SDS011;17297;54.022;10.760;2022-08-19T14:05:58;9.63;;;7.82;;
30515;SDS011;17297;54.022;10.760;2022-08-19T14:08:23;11.57;;;8.50;;
30515;SDS011;17297;54.022;10.760;2022-08-19T14:10:49;9.88;;;7.68;;
30515;SDS011;17297;54.022;10.760;2022-08-19T14:13:16;9.10;;;6.95;;
30515;SDS011;17297;54.022;10.760;2022-08-19T14:15:44;11.82;;;7.75;;
30515;SDS011;17297;54.022;10.760;2022-08-19T14:18:11;8.82;;;7.38;;
30515;SDS011;17297;54.022;10.760;2022-08-19T14:20:36;9.10;;;7.75;;
30515;SDS011;17297;54.022;10.760;2022-08-19T14:23:02;9.35;;;7.00;;
30515;SDS011;17297;54.022;10.760;2022-08-19T14:25:30;10.80;;;7.20;;
30515;SDS011;17297;54.022;10.760;2022-08-19T14:27:56;12.60;;;7.38;;
30515;SDS011;17297;54.022;10.760;2022-08-19T14:30:24;12.30;;;7.53;;
30515;SDS011;17297;54.022;10.760;2022-08-19T14:32:52;9.15;;;7.50;;
30515;SDS011;17297;54.022;10.760;2022-08-19T14:35:23;9.43;;;6.47;;
30515;SDS011;17297;54.022;10.760;2022-08-19T14:37:49;7.13;;;6.10;;